Time;durP1;ratioP1;P1;durP2;ratioP2;P2;SDS_P1;SDS_P2;PMS_P1;PMS_P2;Temp;Humidity;BMP_temperature;BMP_pressure;BME280_temperature;BME280_humidity;BME280_pressure;Samples;Min_cycle;Max_cycle;Signal;HPM_P1;HPM_P2
2022/09/17 00:01:15;;;;;;;2.80;1.60;;;12.30;98.00;;;;;;4995186;28;20574;-68
2022/09/17 00:03:42;;;;;;;1.30;1.10;;;12.30;98.00;;;;;;4995143;28;20461;-68
2022/09/17 00:06:13;;;;;;;1.30;1.20;;;12.30;98.00;;;;;;4995112;28;20459;-67
2022/09/17 00:08:41;;;;;;;1.60;1.40;;;12.40;98.00;;;;;;4977562;28;20960;-67
2022/09/17 00:11:09;;;;;;;1.40;1.20;;;12.30;98.00;;;;;;4995026;28;20454;-68
2022/09/17 00:13:37;;;;;;;1.30;1.17;;;12.30;98.00;;;;;;4995024;28;20494;-68
2022/09/17 00:16:07;;;;;;;1.50;1.17;;;12.40;98.00;;;;;;4994904;28;20807;-67
2022/09/17 00:18:35;;;;;;;1.70;1.10;;;12.50;98.00;;;;;;4995044;28;20467;-67
2022/09/17 00:21:03;;;;;;;1.40;1.20;;;12.40;98.00;;;;;;4994661;28;20462;-68
2022/09/17 00:23:30;;;;;;;1.30;1.17;;;12.30;98.00;;;;;;4994956;28;20466;-68
2022/09/17 00:25:58;;;;;;;1.20;1.00;;;12.40;98.00;;;;;;4994836;28;20480;-67
2022/09/17 00:28:25;;;;;;;1.43;1.20;;;12.40;98.00;;;;;;4994984;28;20470;-67
2022/09/17 00:30:52;;;;;;;1.77;1.10;;;12.40;98.00;;;;;;4995262;28;20458;-68
2022/09/17 00:33:21;;;;;;;1.20;1.20;;;12.40;98.00;;;;;;4994696;28;20526;-68
2022/09/17 00:35:58;;;;;;;1.43;1.10;;;12.30;98.00;;;;;;4994708;28;20473;-67
2022/09/17 00:38:25;;;;;;;1.20;1.20;;;12.30;98.00;;;;;;4994747;28;20466;-68
2022/09/17 00:40:56;;;;;;;1.70;1.33;;;12.20;98.00;;;;;;4994698;28;20467;-68
2022/09/17 00:43:39;;;;;;;3.20;1.67;;;12.20;98.00;;;;;;4994513;28;20457;-68
2022/09/17 00:46:15;;;;;;;1.50;1.20;;;12.20;98.00;;;;;;4993632;28;20457;-68
2022/09/17 00:48:44;;;;;;;1.20;1.10;;;12.30;98.00;;;;;;4994233;28;20988;-67
2022/09/17 00:51:14;;;;;;;1.20;1.10;;;12.30;98.00;;;;;;4994013;28;20493;-68
2022/09/17 00:53:42;;;;;;;1.60;1.20;;;12.20;98.00;;;;;;4993772;28;20487;-68
2022/09/17 00:56:15;;;;;;;1.40;1.20;;;12.20;98.00;;;;;;4993932;28;20535;-68
2022/09/17 00:58:43;;;;;;;1.20;1.10;;;12.40;98.00;;;;;;4994207;28;20471;-67
2022/09/17 01:01:10;;;;;;;1.20;1.00;;;12.40;98.00;;;;;;4994064;28;20464;-67
2022/09/17 01:03:37;;;;;;;1.97;1.40;;;12.40;98.00;;;;;;4994179;28;20936;-67
2022/09/17 01:06:15;;;;;;;1.40;1.10;;;12.40;98.00;;;;;;4994067;28;20467;-67
2022/09/17 01:08:55;;;;;;;1.40;1.13;;;12.40;98.00;;;;;;4994008;28;20875;-67
2022/09/17 01:11:35;;;;;;;1.43;1.20;;;12.40;98.00;;;;;;4994121;28;20462;-67
2022/09/17 01:14:12;;;;;;;1.50;1.20;;;12.40;98.00;;;;;;4993768;28;20494;-67
2022/09/17 01:16:48;;;;;;;1.30;1.10;;;12.30;98.00;;;;;;4993810;28;20504;-67
2022/09/17 01:19:42;;;;;;;1.30;1.10;;;12.20;98.00;;;;;;4993789;28;20466;-68
2022/09/17 01:22:18;;;;;;;1.43;1.37;;;12.20;98.00;;;;;;4993953;28;20471;-67
2022/09/17 01:24:49;;;;;;;1.50;1.30;;;12.20;98.00;;;;;;4993803;28;20830;-67
2022/09/17 01:28:00;;;;;;;1.73;1.23;;;12.30;98.00;;;;;;4993987;28;20870;-67
2022/09/17 01:30:45;;;;;;;1.70;1.40;;;12.00;98.00;;;;;;4974548;28;20464;-67
2022/09/17 01:33:20;;;;;;;1.60;1.20;;;12.10;98.00;;;;;;4974320;28;20974;-67
2022/09/17 01:35:55;;;;;;;1.27;1.20;;;12.10;98.00;;;;;;4974050;28;20454;-67
2022/09/17 01:38:28;;;;;;;1.30;1.30;;;12.30;98.00;;;;;;4974029;28;20479;-67
2022/09/17 01:41:06;;;;;;;1.83;1.20;;;12.20;98.00;;;;;;4973729;28;20960;-67
2022/09/17 01:43:41;;;;;;;2.80;1.47;;;12.10;98.00;;;;;;4974034;28;20457;-68
2022/09/17 01:46:15;;;;;;;2.33;1.40;;;12.20;98.00;;;;;;4957750;28;20818;-67
2022/09/17 01:48:48;;;;;;;2.20;1.23;;;12.20;98.00;;;;;;4973754;28;20467;-68
2022/09/17 01:51:21;;;;;;;1.20;1.10;;;12.20;98.00;;;;;;4974001;28;20451;-67
2022/09/17 01:53:56;;;;;;;1.27;1.23;;;12.20;98.00;;;;;;4973857;28;20490;-67
2022/09/17 01:56:27;;;;;;;1.20;1.10;;;12.30;98.00;;;;;;4973537;28;20549;-67
2022/09/17 01:59:01;;;;;;;1.20;1.10;;;12.20;98.00;;;;;;4956941;28;20875;-67
2022/09/17 02:01:32;;;;;;;1.20;1.10;;;12.20;98.00;;;;;;4956718;28;20824;-67
2022/09/17 02:04:04;;;;;;;1.70;1.50;;;12.10;98.00;;;;;;4973737;28;20522;-67
2022/09/17 02:06:38;;;;;;;1.33;1.20;;;12.10;98.00;;;;;;4973870;28;20463;-68
2022/09/17 02:09:10;;;;;;;1.20;1.10;;;12.10;98.00;;;;;;4973530;28;20461;-67
2022/09/17 02:11:41;;;;;;;1.87;1.20;;;11.90;98.00;;;;;;4973615;28;20458;-67
2022/09/17 02:14:13;;;;;;;1.30;1.00;;;11.80;98.00;;;;;;4973392;28;20860;-68
2022/09/17 02:16:47;;;;;;;1.20;1.03;;;11.80;98.00;;;;;;4972836;28;20458;-67
2022/09/17 02:19:18;;;;;;;1.20;1.10;;;11.80;98.00;;;;;;4972693;28;20468;-67
2022/09/17 02:21:53;;;;;;;1.60;1.40;;;11.90;98.00;;;;;;4972703;28;20462;-67
2022/09/17 02:24:23;;;;;;;1.40;1.30;;;12.00;98.00;;;;;;4972796;28;20860;-67
2022/09/17 02:26:57;;;;;;;1.97;1.30;;;12.10;98.00;;;;;;4973295;28;20823;-68
2022/09/17 02:29:31;;;;;;;1.67;1.37;;;12.20;98.00;;;;;;4986960;28;20984;-67
2022/09/17 02:32:00;;;;;;;2.17;1.10;;;12.20;98.00;;;;;;4976240;28;21017;-67
2022/09/17 02:34:28;;;;;;;1.20;1.10;;;12.20;98.00;;;;;;4992576;28;20496;-67
2022/09/17 02:36:57;;;;;;;1.40;1.30;;;12.10;98.00;;;;;;4992456;28;20468;-67
2022/09/17 02:39:26;;;;;;;1.37;1.10;;;12.00;98.00;;;;;;4992521;28;20459;-67
2022/09/17 02:42:03;;;;;;;2.77;1.40;;;12.00;98.00;;;;;;4992484;28;20457;-67
2022/09/17 02:44:39;;;;;;;1.33;1.27;;;11.90;98.00;;;;;;4992427;28;20465;-67
2022/09/17 02:47:55;;;;;;;2.70;1.30;;;12.00;98.00;;;;;;4992320;28;20504;-67
2022/09/17 02:50:35;;;;;;;1.80;1.30;;;12.00;98.00;;;;;;4913172;29;20453;-67
2022/09/17 02:53:27;;;;;;;1.40;1.10;;;12.00;98.00;;;;;;4981476;28;20480;-67
2022/09/17 02:56:05;;;;;;;1.40;1.20;;;11.80;98.00;;;;;;4992286;28;20463;-67
2022/09/17 02:58:38;;;;;;;1.40;1.30;;;11.70;98.00;;;;;;4992451;28;20460;-67
2022/09/17 03:01:12;;;;;;;1.20;1.00;;;11.80;98.00;;;;;;4975847;28;20468;-67
2022/09/17 03:03:49;;;;;;;1.20;1.20;;;12.00;98.00;;;;;;4959972;28;20461;-67
2022/09/17 03:06:17;;;;;;;1.50;1.20;;;12.00;98.00;;;;;;4992429;28;20943;-67
2022/09/17 03:08:46;;;;;;;1.20;1.10;;;12.00;98.00;;;;;;4994911;28;20489;-67
2022/09/17 03:11:13;;;;;;;1.20;1.10;;;11.90;98.00;;;;;;4996356;28;20465;-67
2022/09/17 03:13:42;;;;;;;1.33;1.17;;;12.00;98.00;;;;;;4996095;28;20492;-67
2022/09/17 03:16:09;;;;;;;1.40;1.30;;;11.90;98.00;;;;;;4996202;28;20469;-67
2022/09/17 03:18:36;;;;;;;1.60;1.30;;;11.90;98.00;;;;;;4996251;28;20529;-67
2022/09/17 03:21:05;;;;;;;1.40;1.10;;;11.90;98.00;;;;;;4978932;28;20470;-67
2022/09/17 03:23:32;;;;;;;1.70;1.30;;;12.00;98.00;;;;;;4996287;28;20455;-67
2022/09/17 03:26:00;;;;;;;1.53;1.23;;;12.10;98.00;;;;;;4996042;28;20458;-67
2022/09/17 03:28:27;;;;;;;1.20;1.00;;;12.20;98.00;;;;;;4995883;28;20471;-67
2022/09/17 03:30:54;;;;;;;1.50;1.33;;;12.20;98.00;;;;;;4978144;28;20522;-67
2022/09/17 03:33:21;;;;;;;1.23;1.20;;;12.20;98.00;;;;;;4995927;28;20841;-67
2022/09/17 03:35:48;;;;;;;1.50;1.30;;;12.30;98.00;;;;;;4995557;28;20471;-67
2022/09/17 03:38:17;;;;;;;1.90;1.50;;;12.30;98.00;;;;;;4978472;28;20988;-67
2022/09/17 03:40:44;;;;;;;1.37;1.30;;;12.20;98.00;;;;;;4995518;28;20480;-67
2022/09/17 03:43:11;;;;;;;1.90;1.47;;;12.10;98.00;;;;;;4995488;28;20454;-67
2022/09/17 03:45:39;;;;;;;1.60;1.40;;;12.00;98.00;;;;;;4995482;28;20461;-67
2022/09/17 03:48:06;;;;;;;1.30;1.30;;;12.00;98.00;;;;;;4995483;28;20456;-67
2022/09/17 03:50:33;;;;;;;2.57;1.27;;;11.90;98.00;;;;;;4978431;28;20527;-67
2022/09/17 03:53:00;;;;;;;1.20;1.10;;;11.90;98.00;;;;;;4995324;28;20463;-67
2022/09/17 03:55:38;;;;;;;1.50;1.20;;;11.70;98.00;;;;;;4995212;28;20550;-67
2022/09/17 03:58:07;;;;;;;1.40;1.30;;;11.60;98.00;;;;;;4995126;28;21009;-67
2022/09/17 04:00:35;;;;;;;1.50;1.23;;;11.50;98.00;;;;;;4995294;28;20465;-67
2022/09/17 04:03:06;;;;;;;1.40;1.27;;;11.40;98.00;;;;;;4995233;28;20449;-67
2022/09/17 04:05:34;;;;;;;1.60;1.10;;;11.50;98.00;;;;;;4995320;28;20514;-67
2022/09/17 04:08:01;;;;;;;1.50;1.30;;;11.50;98.00;;;;;;4995168;28;20472;-67
2022/09/17 04:10:30;;;;;;;1.20;1.10;;;11.50;98.00;;;;;;4978009;28;20967;-67
2022/09/17 04:13:00;;;;;;;1.50;1.30;;;11.60;98.00;;;;;;4995059;28;20833;-67
2022/09/17 04:15:27;;;;;;;2.03;1.30;;;11.60;98.00;;;;;;4978242;28;20491;-67
2022/09/17 04:17:57;;;;;;;1.33;1.17;;;11.50;98.00;;;;;;4995203;28;20468;-67
2022/09/17 04:20:25;;;;;;;1.30;1.10;;;11.60;98.00;;;;;;4976312;28;20469;-67
2022/09/17 04:22:52;;;;;;;1.30;1.10;;;11.60;98.00;;;;;;4995212;28;20461;-67
2022/09/17 04:25:19;;;;;;;1.47;1.47;;;11.50;98.00;;;;;;4994966;28;20462;-67
2022/09/17 04:27:48;;;;;;;1.60;1.20;;;11.60;98.00;;;;;;4994762;28;20461;-68
2022/09/17 04:30:18;;;;;;;1.37;1.30;;;11.60;98.00;;;;;;4995196;28;20516;-67
2022/09/17 04:32:46;;;;;;;1.40;1.13;;;11.40;98.00;;;;;;4994686;28;20468;-67
2022/09/17 04:35:14;;;;;;;1.53;1.43;;;11.30;98.00;;;;;;4994427;28;20491;-67
2022/09/17 04:37:42;;;;;;;1.23;1.20;;;11.30;98.00;;;;;;4994626;28;20460;-67
2022/09/17 04:40:10;;;;;;;1.40;1.10;;;11.20;98.00;;;;;;4977236;28;20456;-67
2022/09/17 04:42:37;;;;;;;1.47;1.33;;;11.10;98.00;;;;;;4994582;28;20481;-67
2022/09/17 04:45:06;;;;;;;1.40;1.20;;;11.10;98.00;;;;;;4977112;28;20468;-67
2022/09/17 04:47:34;;;;;;;1.97;1.23;;;11.30;98.00;;;;;;4994478;28;20536;-67
2022/09/17 04:50:01;;;;;;;1.30;1.10;;;11.40;98.00;;;;;;4994373;28;20456;-67
2022/09/17 04:52:29;;;;;;;1.40;1.30;;;11.40;98.00;;;;;;4994506;28;20464;-67
2022/09/17 04:54:57;;;;;;;1.60;1.20;;;11.40;98.00;;;;;;4976991;28;20484;-67
2022/09/17 04:57:25;;;;;;;1.37;1.20;;;11.40;98.00;;;;;;4994023;28;20471;-67
2022/09/17 04:59:52;;;;;;;2.00;1.30;;;11.50;98.00;;;;;;4994174;28;21102;-67
2022/09/17 05:02:21;;;;;;;1.63;1.20;;;11.60;98.00;;;;;;4977004;28;20471;-67
2022/09/17 05:04:49;;;;;;;2.23;1.53;;;11.60;98.00;;;;;;4994034;28;20457;-67
2022/09/17 05:07:16;;;;;;;1.50;1.20;;;11.50;98.00;;;;;;4977092;28;20940;-67
2022/09/17 05:09:43;;;;;;;1.67;1.63;;;11.30;98.00;;;;;;4994182;28;20463;-67
2022/09/17 05:12:10;;;;;;;1.63;1.30;;;11.20;98.00;;;;;;4976641;28;20953;-67
2022/09/17 05:14:37;;;;;;;1.50;1.27;;;11.20;98.00;;;;;;4993897;28;20877;-67
2022/09/17 05:17:05;;;;;;;1.20;1.20;;;11.20;98.00;;;;;;4994112;28;20462;-67
2022/09/17 05:19:33;;;;;;;1.50;1.00;;;11.10;98.00;;;;;;4993812;28;20468;-67
2022/09/17 05:22:01;;;;;;;1.97;1.87;;;11.10;98.00;;;;;;4994021;28;20468;-67
2022/09/17 05:24:28;;;;;;;2.00;1.27;;;11.20;98.00;;;;;;4976648;28;21010;-67
2022/09/17 05:26:55;;;;;;;1.20;1.00;;;11.20;98.00;;;;;;4976892;28;20478;-67
2022/09/17 05:29:22;;;;;;;1.57;1.20;;;11.20;98.00;;;;;;4993833;28;20476;-67
2022/09/17 05:31:49;;;;;;;3.97;2.10;;;11.20;98.00;;;;;;4993358;28;20459;-67
2022/09/17 05:34:16;;;;;;;1.40;1.20;;;11.10;98.00;;;;;;4993610;28;20475;-67
2022/09/17 05:36:45;;;;;;;1.50;1.17;;;11.10;98.00;;;;;;4993699;28;20878;-67
2022/09/17 05:39:12;;;;;;;1.43;1.20;;;11.10;98.00;;;;;;4993532;28;20468;-67
2022/09/17 05:41:39;;;;;;;1.30;1.30;;;11.20;98.00;;;;;;4993162;28;20468;-67
2022/09/17 05:44:06;;;;;;;2.00;1.40;;;11.30;98.00;;;;;;4976144;28;20467;-67
2022/09/17 05:46:33;;;;;;;1.67;1.43;;;11.20;98.00;;;;;;4993159;28;20467;-67
2022/09/17 05:49:00;;;;;;;1.47;1.30;;;11.20;98.00;;;;;;4993115;28;20954;-67
2022/09/17 05:51:27;;;;;;;1.40;1.20;;;11.10;98.00;;;;;;4992830;28;20458;-67
2022/09/17 05:53:56;;;;;;;1.40;1.40;;;11.10;98.00;;;;;;4992268;28;20970;-67
2022/09/17 05:56:23;;;;;;;1.47;1.37;;;11.10;98.00;;;;;;4992335;28;20953;-67
2022/09/17 05:58:55;;;;;;;1.40;1.10;;;11.10;98.00;;;;;;4992408;28;20491;-67
2022/09/17 06:01:22;;;;;;;1.20;1.10;;;11.00;98.00;;;;;;4975658;28;20470;-67
2022/09/17 06:03:49;;;;;;;1.80;1.50;;;11.10;98.00;;;;;;4992222;28;20457;-67
2022/09/17 06:06:19;;;;;;;1.30;1.20;;;11.20;98.00;;;;;;4992172;28;20467;-67
2022/09/17 06:08:46;;;;;;;1.27;1.13;;;11.30;98.00;;;;;;4992049;28;20479;-67
2022/09/17 06:11:14;;;;;;;1.77;1.23;;;11.10;98.00;;;;;;4991992;28;20456;-67
2022/09/17 06:13:42;;;;;;;1.60;1.50;;;11.10;98.00;;;;;;4992098;28;20465;-67
2022/09/17 06:16:09;;;;;;;1.93;1.50;;;11.10;98.00;;;;;;4992073;28;20510;-67
2022/09/17 06:18:37;;;;;;;1.93;1.73;;;11.00;98.00;;;;;;4974926;28;20456;-67
2022/09/17 06:21:05;;;;;;;3.40;1.50;;;11.10;98.00;;;;;;4992009;28;20460;-67
2022/09/17 06:23:35;;;;;;;2.00;1.47;;;11.10;98.00;;;;;;4991978;28;20988;-64
2022/09/17 06:26:04;;;;;;;1.80;1.37;;;11.20;98.00;;;;;;4991972;28;20958;-64
2022/09/17 06:28:33;;;;;;;4.20;1.77;;;11.30;98.00;;;;;;4992083;28;20465;-64
2022/09/17 06:31:01;;;;;;;4.80;1.20;;;11.40;98.00;;;;;;4992129;28;20518;-64
2022/09/17 06:33:28;;;;;;;1.93;1.50;;;11.50;98.00;;;;;;4991359;28;20839;-64
2022/09/17 06:35:59;;;;;;;1.60;1.20;;;11.50;98.00;;;;;;4991814;28;20490;-64
2022/09/17 06:38:26;;;;;;;1.40;1.30;;;11.50;98.00;;;;;;4991630;28;20478;-63
2022/09/17 06:40:54;;;;;;;2.07;1.30;;;11.30;98.00;;;;;;4991581;28;20505;-64
2022/09/17 06:43:22;;;;;;;2.73;1.40;;;11.20;98.00;;;;;;4973928;28;20460;-63
2022/09/17 06:45:54;;;;;;;2.10;1.70;;;11.10;98.00;;;;;;4974403;28;20549;-63
2022/09/17 06:48:21;;;;;;;2.90;1.37;;;11.10;98.00;;;;;;4974637;28;20470;-63
2022/09/17 06:50:48;;;;;;;1.30;1.30;;;11.00;98.00;;;;;;4991815;28;20553;-63
2022/09/17 06:53:16;;;;;;;1.47;1.40;;;11.00;98.00;;;;;;4991822;28;20677;-63
2022/09/17 06:55:43;;;;;;;2.30;1.63;;;11.10;98.00;;;;;;4974371;28;21009;-63
2022/09/17 06:58:10;;;;;;;1.20;1.20;;;11.00;98.00;;;;;;4991631;28;20456;-64
2022/09/17 07:00:37;;;;;;;1.50;1.30;;;11.10;98.00;;;;;;4958334;28;20472;-64
2022/09/17 07:03:06;;;;;;;1.30;1.13;;;11.10;98.00;;;;;;4974499;28;20461;-64
2022/09/17 07:05:33;;;;;;;1.63;1.57;;;11.20;98.00;;;;;;4991616;28;20458;-63
2022/09/17 07:08:02;;;;;;;3.10;1.57;;;11.30;98.00;;;;;;4974173;28;20464;-63
2022/09/17 07:10:29;;;;;;;2.03;1.60;;;11.20;98.00;;;;;;4991417;28;20499;-64
2022/09/17 07:12:57;;;;;;;1.30;1.10;;;11.30;98.00;;;;;;4991518;28;20464;-64
2022/09/17 07:15:24;;;;;;;1.30;1.30;;;11.20;98.00;;;;;;4991541;28;20486;-64
2022/09/17 07:17:51;;;;;;;1.57;1.57;;;11.20;98.00;;;;;;4991520;28;20880;-63
2022/09/17 07:20:19;;;;;;;1.60;1.60;;;11.10;98.00;;;;;;4991282;28;20458;-63
2022/09/17 07:22:55;;;;;;;1.30;1.20;;;11.10;98.00;;;;;;4991457;28;20463;-63
2022/09/17 07:25:25;;;;;;;5.20;1.47;;;11.20;98.00;;;;;;4975642;28;20545;-63
2022/09/17 07:27:52;;;;;;;1.33;1.23;;;11.30;98.00;;;;;;4991598;28;20463;-64
2022/09/17 07:30:19;;;;;;;2.87;2.23;;;11.30;98.00;;;;;;4988577;28;20468;-64
2022/09/17 07:32:46;;;;;;;1.83;1.33;;;11.30;98.00;;;;;;4989011;28;20822;-64
2022/09/17 07:35:14;;;;;;;2.80;1.40;;;11.40;98.00;;;;;;4988998;28;20954;-63
2022/09/17 07:37:43;;;;;;;1.40;1.17;;;11.30;98.00;;;;;;4971641;28;20463;-63
2022/09/17 07:40:10;;;;;;;1.50;1.30;;;11.10;98.00;;;;;;4988770;28;20444;-64
2022/09/17 07:42:37;;;;;;;1.60;1.50;;;11.00;98.00;;;;;;4971002;28;20523;-64
2022/09/17 07:45:05;;;;;;;1.70;1.53;;;10.90;98.00;;;;;;4988797;28;20509;-64
2022/09/17 07:47:32;;;;;;;9.00;1.63;;;11.00;98.00;;;;;;4988603;28;20474;-63
2022/09/17 07:49:59;;;;;;;3.03;1.40;;;11.00;98.00;;;;;;4986480;28;20453;-64
2022/09/17 07:52:27;;;;;;;1.30;1.30;;;10.90;98.00;;;;;;4989572;28;20469;-64
2022/09/17 07:54:56;;;;;;;1.87;1.40;;;11.00;98.00;;;;;;4994156;28;20524;-63
2022/09/17 07:59:50;;;;;;;1.30;1.30;;;11.00;98.00;;;;;;5012879;28;20832;-63
2022/09/17 08:02:17;;;;;;;2.10;1.77;;;10.90;98.00;;;;;;5014167;28;20496;-63
2022/09/17 08:04:44;;;;;;;1.97;1.40;;;10.90;98.00;;;;;;5014147;28;20497;-63
2022/09/17 08:07:12;;;;;;;1.50;1.50;;;10.90;98.00;;;;;;5014067;28;20470;-63
2022/09/17 08:09:39;;;;;;;2.53;1.20;;;10.90;98.00;;;;;;5011960;28;21147;-63
2022/09/17 08:12:08;;;;;;;1.50;1.30;;;10.80;98.00;;;;;;5012728;28;20776;-63
2022/09/17 08:14:35;;;;;;;1.50;1.40;;;10.80;98.00;;;;;;5014054;28;20466;-63
2022/09/17 08:17:02;;;;;;;1.73;1.67;;;10.70;98.00;;;;;;5013611;28;20458;-63
2022/09/17 08:19:31;;;;;;;1.43;1.33;;;10.70;98.00;;;;;;5013872;28;20949;-63
2022/09/17 08:21:58;;;;;;;1.93;1.63;;;10.70;98.00;;;;;;5013609;28;20525;-63
2022/09/17 08:24:26;;;;;;;2.07;1.80;;;10.80;98.00;;;;;;5013821;28;20461;-63
2022/09/17 08:26:53;;;;;;;1.53;1.43;;;10.70;98.00;;;;;;4996575;28;20964;-63
2022/09/17 08:29:22;;;;;;;1.77;1.30;;;10.70;98.00;;;;;;5014007;28;20529;-63
2022/09/17 08:31:49;;;;;;;1.50;1.20;;;10.70;98.00;;;;;;5013570;28;20482;-63
2022/09/17 08:34:17;;;;;;;1.63;1.30;;;10.70;98.00;;;;;;5013806;28;20556;-63
2022/09/17 08:36:44;;;;;;;2.47;1.87;;;10.80;98.00;;;;;;4987500;28;20661;-63
2022/09/17 08:39:13;;;;;;;1.90;1.57;;;10.80;98.00;;;;;;4999104;28;20466;-63
2022/09/17 08:41:50;;;;;;;2.70;1.40;;;10.80;98.00;;;;;;4986430;28;20509;-63
2022/09/17 08:44:31;;;;;;;1.90;1.27;;;10.70;98.00;;;;;;5009743;28;20964;-63
2022/09/17 08:47:03;;;;;;;1.10;1.00;;;10.80;98.00;;;;;;4962816;28;20464;-63
2022/09/17 08:49:34;;;;;;;3.10;1.80;;;11.00;98.00;;;;;;4973584;28;20785;-63
2022/09/17 08:52:31;;;;;;;2.13;1.70;;;11.10;98.00;;;;;;5006643;28;20459;-62
2022/09/17 08:55:07;;;;;;;2.63;1.33;;;11.10;98.00;;;;;;4987198;28;20798;-64
2022/09/17 08:57:44;;;;;;;1.40;1.40;;;11.00;98.00;;;;;;4999771;28;20469;-63
2022/09/17 09:00:16;;;;;;;3.50;1.80;;;11.10;98.00;;;;;;4986413;28;20471;-63
2022/09/17 09:03:03;;;;;;;1.80;1.60;;;11.00;98.00;;;;;;5000605;28;20464;-63
2022/09/17 09:05:39;;;;;;;1.40;1.30;;;11.00;98.00;;;;;;4990951;28;20978;-63
2022/09/17 09:08:16;;;;;;;1.40;1.30;;;11.00;98.00;;;;;;5001041;28;20528;-63
2022/09/17 09:10:50;;;;;;;2.27;1.50;;;11.00;98.00;;;;;;4991908;28;20543;-63
2022/09/17 09:13:22;;;;;;;1.30;1.30;;;11.20;98.00;;;;;;5001539;28;20455;-63
2022/09/17 09:15:55;;;;;;;2.03;1.73;;;11.30;98.00;;;;;;4999078;28;20491;-63
2022/09/17 09:18:25;;;;;;;1.60;1.50;;;11.50;98.00;;;;;;4999384;28;20468;-64
2022/09/17 09:20:54;;;;;;;2.23;1.60;;;11.60;98.00;;;;;;4998733;28;20465;-63
2022/09/17 09:23:29;;;;;;;1.80;1.37;;;11.70;98.00;;;;;;4996436;28;20466;-63
2022/09/17 09:26:07;;;;;;;1.40;1.37;;;11.80;98.00;;;;;;5008489;28;20999;-63
2022/09/17 09:28:47;;;;;;;1.53;1.30;;;11.80;98.00;;;;;;5000916;28;20475;-63
2022/09/17 09:31:34;;;;;;;1.43;1.33;;;11.80;98.00;;;;;;5005379;28;20582;-64
2022/09/17 09:34:03;;;;;;;2.17;1.60;;;12.10;98.00;;;;;;5011917;28;20470;-64
2022/09/17 09:36:32;;;;;;;2.03;1.40;;;12.20;98.00;;;;;;5012288;28;20547;-64
2022/09/17 09:39:03;;;;;;;1.57;1.50;;;12.40;98.00;;;;;;5012350;28;20459;-63
2022/09/17 09:41:36;;;;;;;6.90;1.70;;;12.40;98.00;;;;;;5012274;28;20989;-63
2022/09/17 09:44:05;;;;;;;1.93;1.53;;;12.30;98.00;;;;;;5012466;28;20484;-63
2022/09/17 09:47:07;;;;;;;9.20;1.63;;;12.20;98.00;;;;;;5012288;28;20458;-63
2022/09/17 09:49:52;;;;;;;4.33;1.30;;;12.20;98.00;;;;;;5001207;28;21036;-63
2022/09/17 09:52:34;;;;;;;4.03;1.60;;;12.30;98.00;;;;;;5012170;28;20455;-63
2022/09/17 09:55:18;;;;;;;1.63;1.30;;;12.30;98.00;;;;;;5012210;28;20509;-63
2022/09/17 09:57:47;;;;;;;1.40;1.20;;;12.20;98.00;;;;;;5011998;28;20463;-63
2022/09/17 10:00:27;;;;;;;1.67;1.40;;;12.10;98.00;;;;;;4994693;28;20463;-63
2022/09/17 10:03:01;;;;;;;3.50;1.50;;;12.20;98.00;;;;;;5012128;28;20470;-63
2022/09/17 10:05:29;;;;;;;2.90;1.90;;;12.20;98.00;;;;;;5011913;28;20833;-63
2022/09/17 10:07:57;;;;;;;2.53;1.70;;;12.30;98.00;;;;;;5011812;28;20453;-63
2022/09/17 10:10:24;;;;;;;4.90;1.87;;;12.30;98.00;;;;;;5011754;28;20457;-63
2022/09/17 10:13:06;;;;;;;2.30;1.60;;;12.40;98.00;;;;;;5011723;28;20550;-64
2022/09/17 10:15:33;;;;;;;1.77;1.67;;;12.30;98.00;;;;;;5011854;28;20490;-63
2022/09/17 10:18:16;;;;;;;3.30;1.60;;;12.40;98.00;;;;;;5010732;28;20484;-63
2022/09/17 10:20:51;;;;;;;1.30;1.00;;;12.60;98.00;;;;;;5011753;28;20465;-64
2022/09/17 10:23:19;;;;;;;2.17;1.67;;;12.60;98.00;;;;;;5011706;28;20466;-64
2022/09/17 10:25:47;;;;;;;1.60;1.50;;;12.80;98.00;;;;;;5011958;28;20539;-64
2022/09/17 10:28:35;;;;;;;2.23;1.40;;;12.80;98.00;;;;;;5011803;28;20476;-63
2022/09/17 10:31:07;;;;;;;1.40;1.20;;;12.80;98.00;;;;;;5011866;28;20465;-63
2022/09/17 10:33:38;;;;;;;2.07;1.80;;;12.70;98.00;;;;;;5011776;28;20467;-63
2022/09/17 10:36:08;;;;;;;1.50;1.30;;;12.80;98.00;;;;;;5011705;28;20551;-64
2022/09/17 10:38:38;;;;;;;1.80;1.50;;;12.90;98.00;;;;;;5012005;28;20485;-64
2022/09/17 10:41:12;;;;;;;1.20;1.10;;;12.90;98.00;;;;;;5011817;28;20461;-64
2022/09/17 10:43:40;;;;;;;1.53;1.30;;;12.90;98.00;;;;;;5011436;28;20461;-64
2022/09/17 10:46:10;;;;;;;1.30;1.20;;;13.20;98.00;;;;;;4994150;28;20826;-64
2022/09/17 10:48:44;;;;;;;1.70;1.60;;;13.90;98.00;;;;;;5011673;28;20901;-64
2022/09/17 10:51:21;;;;;;;2.50;1.80;;;14.70;98.00;;;;;;5011450;28;20508;-64
2022/09/17 10:54:32;;;;;;;1.50;1.50;;;15.00;98.00;;;;;;5011501;28;20550;-64
2022/09/17 10:57:02;;;;;;;3.20;1.67;;;14.80;98.00;;;;;;5011085;28;20479;-64
2022/09/17 10:59:59;;;;;;;2.33;1.50;;;14.70;98.00;;;;;;5011262;28;20472;-64
2022/09/17 11:02:58;;;;;;;1.80;1.57;;;14.40;98.00;;;;;;5011589;28;20971;-64
2022/09/17 11:05:46;;;;;;;1.87;1.33;;;14.20;98.00;;;;;;4981035;28;20459;-64
2022/09/17 11:08:21;;;;;;;1.70;1.40;;;14.30;98.00;;;;;;5011961;28;20550;-64
2022/09/17 11:10:58;;;;;;;2.53;1.40;;;14.30;98.00;;;;;;4993827;28;21015;-64
2022/09/17 11:13:36;;;;;;;3.67;1.60;;;14.80;98.00;;;;;;5011373;28;20517;-64
2022/09/17 11:16:32;;;;;;;1.90;1.50;;;15.50;98.00;;;;;;5011292;28;20568;-64
2022/09/17 11:19:10;;;;;;;2.70;1.40;;;15.90;98.00;;;;;;5011243;28;20461;-65
2022/09/17 11:21:44;;;;;;;2.30;1.50;;;15.80;98.00;;;;;;5011188;28;20467;-64
2022/09/17 11:24:54;;;;;;;2.03;1.60;;;16.40;98.00;;;;;;4994063;28;20500;-64
2022/09/17 11:27:37;;;;;;;2.23;1.57;;;16.30;98.00;;;;;;5011156;28;20470;-64
2022/09/17 11:30:14;;;;;;;2.60;1.47;;;16.10;98.00;;;;;;5014572;28;20461;-64
2022/09/17 11:33:16;;;;;;;1.60;1.33;;;15.80;98.00;;;;;;5015209;28;20460;-64
2022/09/17 11:35:48;;;;;;;1.30;1.30;;;15.90;98.00;;;;;;5014476;28;20546;-64
2022/09/17 11:38:25;;;;;;;2.20;1.57;;;15.70;98.00;;;;;;5014638;28;20470;-64
2022/09/17 11:41:00;;;;;;;1.83;1.60;;;15.60;98.00;;;;;;5014586;28;20874;-64
2022/09/17 11:43:32;;;;;;;2.30;1.50;;;15.50;98.00;;;;;;5014582;28;20468;-64
2022/09/17 11:46:03;;;;;;;2.03;1.70;;;15.60;98.00;;;;;;5014600;28;20490;-64
2022/09/17 11:48:38;;;;;;;1.83;1.53;;;15.60;98.00;;;;;;5014528;28;20464;-64
2022/09/17 11:51:23;;;;;;;1.73;1.43;;;15.60;98.00;;;;;;5014420;28;20514;-64
2022/09/17 11:53:56;;;;;;;1.30;1.20;;;15.20;98.00;;;;;;5014485;28;20473;-64
2022/09/17 11:56:27;;;;;;;2.03;1.77;;;14.70;98.00;;;;;;5014294;28;20573;-64
2022/09/17 11:59:03;;;;;;;1.50;1.20;;;14.60;98.00;;;;;;5014422;28;20470;-64
2022/09/17 12:01:42;;;;;;;1.67;1.30;;;14.70;98.00;;;;;;5014340;28;20462;-64
2022/09/17 12:04:29;;;;;;;1.67;1.30;;;14.60;98.00;;;;;;5014373;28;20462;-64
2022/09/17 12:07:02;;;;;;;1.40;1.20;;;14.40;98.00;;;;;;5014075;28;20967;-64
2022/09/17 12:09:35;;;;;;;1.30;1.20;;;14.20;98.00;;;;;;5014100;28;20974;-64
2022/09/17 12:12:07;;;;;;;1.47;1.33;;;14.10;98.00;;;;;;5014127;28;20465;-64
2022/09/17 12:14:45;;;;;;;1.40;1.20;;;14.00;98.00;;;;;;5013979;28;20553;-64
2022/09/17 12:17:20;;;;;;;2.10;1.63;;;14.00;98.00;;;;;;5013937;28;20571;-64
2022/09/17 12:19:51;;;;;;;1.63;1.30;;;14.10;98.00;;;;;;5013923;28;20532;-64
2022/09/17 12:22:21;;;;;;;2.00;1.40;;;14.90;98.00;;;;;;5013807;28;20451;-64
2022/09/17 12:24:52;;;;;;;2.73;1.40;;;15.10;98.00;;;;;;5013971;28;20994;-64
2022/09/17 12:27:34;;;;;;;2.40;1.50;;;15.20;98.00;;;;;;5013827;28;20501;-64
2022/09/17 12:30:20;;;;;;;1.70;1.40;;;15.00;98.00;;;;;;4996588;28;20467;-64
2022/09/17 12:33:14;;;;;;;2.60;1.50;;;14.90;98.00;;;;;;5013777;28;20522;-64
2022/09/17 12:36:03;;;;;;;1.50;1.30;;;15.10;98.00;;;;;;5013667;28;20464;-64
2022/09/17 12:38:48;;;;;;;1.20;1.20;;;15.50;98.00;;;;;;5004605;28;20444;-64
2022/09/17 12:41:21;;;;;;;1.43;1.40;;;15.80;98.00;;;;;;5012604;28;20467;-64
2022/09/17 12:44:04;;;;;;;3.00;1.60;;;16.00;98.00;;;;;;5013477;28;20467;-65
2022/09/17 12:46:50;;;;;;;1.87;1.60;;;16.70;98.00;;;;;;5013306;28;20472;-64
2022/09/17 12:49:40;;;;;;;2.00;1.57;;;17.30;98.00;;;;;;5013324;28;20468;-64
2022/09/17 12:52:15;;;;;;;1.43;1.20;;;17.40;98.00;;;;;;4995708;28;20469;-64
2022/09/17 12:55:05;;;;;;;1.90;1.33;;;17.20;98.00;;;;;;4996446;28;20943;-64
2022/09/17 12:57:39;;;;;;;1.50;1.33;;;16.50;98.00;;;;;;5013096;28;20491;-65
2022/09/17 13:00:10;;;;;;;1.50;1.40;;;16.00;98.00;;;;;;5013099;28;20455;-64
2022/09/17 13:02:42;;;;;;;1.60;1.30;;;15.60;98.00;;;;;;5013157;28;20555;-64
2022/09/17 13:05:34;;;;;;;2.90;1.37;;;15.40;98.00;;;;;;5013199;28;20466;-64
2022/09/17 13:08:44;;;;;;;1.43;1.20;;;15.40;98.00;;;;;;5013002;28;20468;-64
2022/09/17 13:11:45;;;;;;;1.50;1.20;;;15.40;98.00;;;;;;5000200;28;20462;-64
2022/09/17 13:14:23;;;;;;;1.20;1.17;;;16.00;98.00;;;;;;4985546;28;20471;-65
2022/09/17 13:16:56;;;;;;;1.60;1.50;;;16.70;98.00;;;;;;4995559;28;21030;-64
2022/09/17 13:19:33;;;;;;;1.77;1.40;;;17.00;98.00;;;;;;5012921;28;20475;-64